AMAT2: Canadian River Nr Amarillo, TX

                                SHEF ID:       AMAT2     Canadian Rv nr Amarillo, TX
STATION TYPE:
Regulating: Stage = 13.00, Flow = 11996

PRECIP STAGE RIV-FLOW WTR-TEMP CONDUCT BAT-LOAD
in ft cfs F umho/cm volt
Ccp-Rev Ccp-Rev Ccp-Rev Ccp-Rev Ccp-Rev Ccp-Rev
(America/Chicago)
07/18 00:00 ---- 1.91 169 76.98 1 12.62
07/18 01:00 ---- 1.99 189 76.69 1 12.61
07/18 02:00 ---- 2.04 202 76.59 1 12.60
07/18 03:00 ---- 2.05 204 76.64 1 12.60
07/18 04:00 ---- 2.02 196 76.71 1 12.57
07/18 05:00 ---- 1.99 189 76.77 1 12.54
07/18 06:00 ---- 1.92 171 76.73 1 12.53
07/18 07:00 ---- 1.89 164 76.60 1 12.56
07/18 08:00 ---- 1.84 153 76.35 1 12.73
07/18 09:00 ---- 1.81 146 75.97 1 13.04
07/18 10:00 ---- 1.79 142 75.61 1 13.49
07/18 11:00 ---- 1.79 142 75.34 1 13.74
07/18 12:00 ---- 1.92 171 75.34 1 13.69
07/18 13:00 ---- 2.61 403 76.44 1 13.64
07/18 14:00 ---- 3.04 562 78.33 1 13.59
07/18 15:00 ---- 3.23 639 79.54 1 13.49
07/18 16:00 ---- 3.26 651 80.38 1 13.47
07/18 17:00 ---- 3.19 623 80.78 1 13.45
07/18 18:00 ---- 3.10 586 80.83 1 13.24
07/18 19:00 ---- 2.97 535 80.73 1 13.05
07/18 20:00 ---- 2.87 497 80.53 1 12.76
07/18 21:00 ---- 2.77 460 80.29 1 12.63
07/18 22:00 ---- 2.66 422 80.13 1 12.63
07/18 23:00 ---- 2.54 373 79.92 1 12.62
Data processed at Sat 19Jul2025 04:15 GMT

Parsing this webpage?

Checkout our new Data API! CWMSDataAPI (CDA)

Timeseries IDs (TSIDs)

TSIDs used from left to right in the data table
AMAR.Precip-Inc.Total.1Hour.1Hour.Ccp-Rev
AMAR.Stage.Inst.1Hour.0.Ccp-Rev
AMAR.Flow.Inst.1Hour.0.Ccp-Rev
AMAR.Temp-Water.Inst.1Hour.0.Ccp-Rev
AMAR.Cond-Water.Inst.1Hour.0.Ccp-Rev
AMAR.Volt-Battery Load.Inst.1Hour.0.Ccp-Rev

                            

All information presented herein is the property of the government of the United States of America and may be revised or deleted at any time without prior notice. Dissemination of this information without the expressed written consent of the Public Affairs Office, Tulsa District U.S. Army Corps of Engineers is strictly prohibited. These data are gathered electronically and, as presented, have NOT undergone any form of quality control. These data are NOT guaranteed to be valid or correct.